Terminal Aerodrome Forecast
Issued by NWS Sterling, VA

Current Version | Previous Version | Text Only | Print | Product List | Glossary Off
Versions: 1 2 3 4 5 6 7 8 9 10 11 12 13 14 15 16 17 18 19 20 21 22 23

000
FTUS41 KLWX 150156 AAA
TAFDCA
TAF AMD
KDCA 150156Z 1502/1524 00000KT 6SM BR BKN008
     FM150700 00000KT 5SM BR SCT003 BKN008
     FM151200 20006KT P6SM BKN020
     FM151600 21011G19KT P6SM SCT050=

USA.gov is the U.S. government's official web portal to all federal, state and local government web resources and services.